Time;durP1;ratioP1;P1;durP2;ratioP2;P2;SDS_P1;SDS_P2;PMS_P1;PMS_P2;Temp;Humidity;BMP_temperature;BMP_pressure;BME280_temperature;BME280_humidity;BME280_pressure;Samples;Min_cycle;Max_cycle;Signal;HPM_P1;HPM_P2
2021/09/19 00:00:45;;;;;;;10.13;6.50;;;8.50;95.30;;;;;;2056910;28;20261;-65
2021/09/19 00:01:46;;;;;;;8.27;6.55;;;8.50;95.40;;;;;;2064138;28;20186;-66
2021/09/19 00:02:46;;;;;;;10.13;6.87;;;8.50;95.50;;;;;;2064289;28;20194;-65
2021/09/19 00:03:47;;;;;;;7.30;5.53;;;8.50;95.60;;;;;;2057018;28;20500;-65
2021/09/19 00:04:48;;;;;;;8.33;5.93;;;8.50;95.40;;;;;;2056558;28;20239;-67
2021/09/19 00:05:49;;;;;;;9.20;5.73;;;8.50;95.30;;;;;;2056621;28;20194;-65
2021/09/19 00:06:49;;;;;;;11.37;6.40;;;8.50;95.30;;;;;;2056884;28;20185;-65
2021/09/19 00:07:50;;;;;;;7.90;5.93;;;8.50;95.20;;;;;;2064415;28;20182;-65
2021/09/19 00:08:51;;;;;;;9.70;6.57;;;8.50;95.20;;;;;;2064271;28;20260;-65
2021/09/19 00:09:52;;;;;;;7.07;5.28;;;8.50;95.30;;;;;;2056038;28;20678;-66
2021/09/19 00:10:54;;;;;;;7.10;5.97;;;8.50;95.40;;;;;;2056146;28;20264;-65
2021/09/19 00:11:55;;;;;;;10.88;6.70;;;8.40;95.60;;;;;;2056702;28;20184;-65
2021/09/19 00:12:56;;;;;;;8.27;6.27;;;8.40;95.60;;;;;;2056679;28;20267;-65
2021/09/19 00:13:56;;;;;;;9.20;6.23;;;8.40;95.50;;;;;;2056855;28;20187;-66
2021/09/19 00:14:57;;;;;;;9.90;5.97;;;8.40;95.60;;;;;;2064082;28;20188;-65
2021/09/19 00:15:58;;;;;;;7.47;5.50;;;8.40;95.50;;;;;;2064117;28;20710;-65
2021/09/19 00:16:59;;;;;;;8.17;6.23;;;8.40;95.50;;;;;;2064159;28;20185;-65
2021/09/19 00:17:59;;;;;;;11.07;5.80;;;8.40;95.50;;;;;;2064208;28;20234;-65
2021/09/19 00:19:00;;;;;;;7.80;5.53;;;8.40;95.50;;;;;;2056674;28;20209;-66
2021/09/19 00:20:01;;;;;;;7.93;5.57;;;8.30;95.40;;;;;;2056818;28;20209;-65
2021/09/19 00:21:02;;;;;;;8.03;5.33;;;8.40;95.40;;;;;;2056509;28;20194;-65
2021/09/19 00:22:03;;;;;;;6.70;5.13;;;8.30;95.40;;;;;;2056627;28;20289;-65
2021/09/19 00:23:04;;;;;;;8.73;5.32;;;8.30;95.30;;;;;;2064074;28;20188;-65
2021/09/19 00:24:05;;;;;;;8.70;6.30;;;8.30;95.20;;;;;;2064240;28;20269;-65
2021/09/19 00:25:09;;;;;;;6.80;4.97;;;8.40;95.10;;;;;;2056654;28;20258;-65
2021/09/19 00:26:10;;;;;;;6.65;5.03;;;8.30;95.10;;;;;;2064149;28;20183;-65
2021/09/19 00:27:10;;;;;;;6.73;5.17;;;8.30;95.20;;;;;;2064206;28;20620;-66
2021/09/19 00:28:11;;;;;;;7.33;5.30;;;8.30;95.20;;;;;;2056922;28;20191;-65
2021/09/19 00:29:12;;;;;;;7.63;5.40;;;8.30;95.20;;;;;;2056742;28;20182;-66
2021/09/19 00:30:13;;;;;;;7.23;4.73;;;8.20;95.20;;;;;;2056741;28;20190;-66
2021/09/19 00:31:13;;;;;;;8.43;5.53;;;8.30;95.40;;;;;;2056465;28;20670;-66
2021/09/19 00:32:14;;;;;;;8.17;5.73;;;8.20;96.00;;;;;;2056722;28;20420;-66
2021/09/19 00:33:15;;;;;;;8.07;5.77;;;8.20;95.60;;;;;;2056679;28;20185;-66
2021/09/19 00:34:15;;;;;;;5.00;4.17;;;8.20;95.80;;;;;;2056800;28;20266;-66
2021/09/19 00:35:16;;;;;;;7.50;5.17;;;8.10;95.80;;;;;;2056694;28;20189;-66
2021/09/19 00:36:17;;;;;;;10.17;5.00;;;8.00;96.10;;;;;;2056707;28;20703;-67
2021/09/19 00:37:18;;;;;;;6.67;4.93;;;8.00;96.10;;;;;;2056675;28;20252;-65
2021/09/19 00:38:18;;;;;;;7.17;5.40;;;8.00;96.00;;;;;;2056770;28;20181;-65
2021/09/19 00:39:19;;;;;;;9.33;5.57;;;8.00;96.00;;;;;;2056627;28;20290;-67
2021/09/19 00:40:20;;;;;;;7.03;5.10;;;8.00;95.80;;;;;;2056775;28;20210;-66
2021/09/19 00:41:21;;;;;;;10.20;5.53;;;8.00;95.70;;;;;;2063803;28;20254;-65
2021/09/19 00:42:22;;;;;;;7.17;5.47;;;8.00;95.70;;;;;;2063954;28;20578;-66
2021/09/19 00:43:23;;;;;;;6.83;5.60;;;8.10;95.80;;;;;;2056665;28;20554;-67
2021/09/19 00:44:27;;;;;;;5.73;4.93;;;8.10;95.70;;;;;;2056686;28;20178;-66
2021/09/19 00:45:27;;;;;;;7.13;5.35;;;8.10;95.60;;;;;;2056726;28;20185;-65
2021/09/19 00:46:28;;;;;;;5.93;4.90;;;8.10;95.50;;;;;;2056676;28;20178;-65
2021/09/19 00:47:29;;;;;;;6.27;4.67;;;8.10;95.50;;;;;;2056542;28;20189;-67
2021/09/19 00:48:30;;;;;;;5.97;4.77;;;8.10;95.40;;;;;;2056801;28;20224;-66
2021/09/19 00:49:30;;;;;;;8.47;5.30;;;8.10;95.40;;;;;;2056593;28;20256;-66
2021/09/19 00:50:31;;;;;;;7.27;5.47;;;8.00;95.50;;;;;;2064153;28;20181;-65
2021/09/19 00:51:33;;;;;;;7.03;5.50;;;8.00;95.70;;;;;;2063827;28;20249;-66
2021/09/19 00:52:40;;;;;;;6.43;4.82;;;8.00;95.60;;;;;;2056504;28;20210;-65
2021/09/19 00:53:41;;;;;;;7.70;5.28;;;8.00;95.40;;;;;;2055974;28;20629;-66
2021/09/19 00:54:44;;;;;;;6.30;4.93;;;8.10;95.70;;;;;;2056011;28;20655;-65
2021/09/19 00:55:49;;;;;;;7.65;5.00;;;8.00;95.70;;;;;;2064008;28;20290;-65
2021/09/19 00:56:56;;;;;;;6.57;4.93;;;8.10;95.50;;;;;;2063624;28;20207;-66
2021/09/19 00:57:57;;;;;;;8.32;5.00;;;8.10;95.30;;;;;;2056578;28;20207;-67
2021/09/19 00:58:58;;;;;;;5.95;4.75;;;8.10;95.40;;;;;;2056659;28;20195;-67
2021/09/19 00:59:59;;;;;;;6.90;5.30;;;8.00;95.50;;;;;;2056690;28;20193;-68
2021/09/19 01:01:02;;;;;;;7.70;5.47;;;8.00;95.50;;;;;;2056470;28;20179;-67
2021/09/19 01:02:03;;;;;;;8.43;5.57;;;8.00;95.40;;;;;;2055851;28;20748;-66
2021/09/19 01:03:05;;;;;;;6.88;5.20;;;7.90;95.50;;;;;;2056010;28;20670;-67
2021/09/19 01:04:06;;;;;;;6.53;5.43;;;7.90;95.60;;;;;;2056555;28;20181;-66
2021/09/19 01:05:09;;;;;;;6.32;4.68;;;7.90;95.70;;;;;;2064100;28;20184;-66
2021/09/19 01:06:10;;;;;;;8.93;5.22;;;7.90;95.60;;;;;;2063723;28;20191;-66
2021/09/19 01:07:15;;;;;;;7.75;5.22;;;7.90;95.60;;;;;;2056614;28;20179;-67
2021/09/19 01:08:16;;;;;;;6.38;5.10;;;7.90;95.70;;;;;;2056682;28;20183;-66
2021/09/19 01:09:17;;;;;;;6.60;4.65;;;7.90;95.70;;;;;;2064009;28;20189;-67
2021/09/19 01:10:22;;;;;;;5.30;4.50;;;7.90;95.60;;;;;;2064076;28;20210;-67
2021/09/19 01:11:23;;;;;;;7.72;5.35;;;7.90;95.60;;;;;;2063903;28;20174;-67
2021/09/19 01:12:24;;;;;;;7.63;5.93;;;7.90;95.50;;;;;;2064064;28;20206;-67
2021/09/19 01:13:27;;;;;;;8.10;6.05;;;7.90;95.50;;;;;;2056661;28;20183;-66
2021/09/19 01:14:30;;;;;;;7.78;5.68;;;7.90;95.60;;;;;;2056077;28;20181;-67
2021/09/19 01:15:32;;;;;;;7.10;5.43;;;7.90;95.70;;;;;;2055960;28;20660;-66
2021/09/19 01:16:33;;;;;;;6.57;4.95;;;7.90;95.80;;;;;;2064149;28;20190;-66
2021/09/19 01:17:37;;;;;;;8.53;5.90;;;7.90;95.70;;;;;;2056698;28;20184;-67
2021/09/19 01:18:43;;;;;;;8.02;5.43;;;7.90;95.80;;;;;;2057466;28;20268;-67
2021/09/19 01:19:48;;;;;;;7.30;4.53;;;7.80;95.80;;;;;;2065520;28;20189;-67
2021/09/19 01:20:48;;;;;;;6.20;5.25;;;7.80;95.90;;;;;;2064972;28;20179;-67
2021/09/19 01:21:49;;;;;;;7.63;5.10;;;7.80;95.80;;;;;;2057710;28;20179;-66
2021/09/19 01:23:10;;;;;;;6.05;4.55;;;7.80;95.70;;;;;;2057160;28;20202;-66
2021/09/19 01:24:11;;;;;;;8.50;5.15;;;7.80;95.50;;;;;;2057638;28;20167;-66
2021/09/19 01:25:15;;;;;;;6.77;5.10;;;7.80;95.50;;;;;;2058065;28;20632;-66
2021/09/19 01:26:17;;;;;;;8.00;5.65;;;7.80;95.50;;;;;;2058071;28;20679;-67
2021/09/19 01:27:18;;;;;;;7.68;5.50;;;7.70;95.60;;;;;;2057955;28;20179;-66
2021/09/19 01:28:19;;;;;;;6.73;5.37;;;7.70;95.60;;;;;;2058012;28;20184;-67
2021/09/19 01:29:20;;;;;;;8.80;5.87;;;7.70;95.70;;;;;;2058055;28;20283;-66
2021/09/19 01:30:21;;;;;;;7.47;5.73;;;7.70;95.80;;;;;;2057976;28;20650;-67
2021/09/19 01:31:22;;;;;;;7.68;5.43;;;7.70;95.90;;;;;;2057802;28;20184;-66
2021/09/19 01:32:23;;;;;;;5.78;4.82;;;7.70;96.00;;;;;;2057928;28;20762;-67
2021/09/19 01:33:24;;;;;;;9.67;5.50;;;7.70;96.00;;;;;;2057939;28;20191;-67
2021/09/19 01:34:26;;;;;;;6.57;5.10;;;7.70;96.00;;;;;;2057947;28;20183;-67
2021/09/19 01:35:27;;;;;;;8.07;5.13;;;7.70;95.90;;;;;;2057786;28;20246;-67
2021/09/19 01:36:35;;;;;;;7.00;5.05;;;7.70;95.80;;;;;;2057855;28;20234;-66
2021/09/19 01:37:36;;;;;;;6.70;5.13;;;7.80;95.60;;;;;;2057276;28;20508;-66
2021/09/19 01:38:38;;;;;;;7.93;5.20;;;7.80;95.50;;;;;;2057444;28;20270;-67
2021/09/19 01:39:38;;;;;;;6.20;4.68;;;7.80;95.50;;;;;;2057817;28;20174;-68
2021/09/19 01:40:39;;;;;;;7.13;5.07;;;7.80;95.50;;;;;;2058015;28;20179;-67
2021/09/19 01:41:40;;;;;;;6.90;5.50;;;7.80;95.50;;;;;;2057634;28;20187;-67
2021/09/19 01:42:41;;;;;;;7.60;5.33;;;7.70;95.50;;;;;;2057889;28;20208;-66
2021/09/19 01:43:42;;;;;;;7.10;5.18;;;7.70;95.70;;;;;;2057938;28;20203;-67
2021/09/19 01:44:43;;;;;;;7.47;5.40;;;7.70;95.70;;;;;;2057787;28;20262;-67
2021/09/19 01:45:43;;;;;;;6.47;5.47;;;7.70;95.70;;;;;;2057828;28;20183;-67
2021/09/19 01:46:44;;;;;;;9.23;5.80;;;7.70;95.70;;;;;;2057755;28;20601;-67
2021/09/19 01:47:45;;;;;;;7.40;5.70;;;7.70;95.70;;;;;;2057774;28;20184;-66
2021/09/19 01:48:46;;;;;;;8.87;5.37;;;7.70;95.70;;;;;;2057790;28;20192;-66
2021/09/19 01:49:48;;;;;;;8.50;5.80;;;7.70;95.70;;;;;;2057147;28;20183;-68
2021/09/19 01:50:49;;;;;;;6.97;5.18;;;7.70;95.70;;;;;;2057177;28;20183;-67
2021/09/19 01:51:49;;;;;;;6.40;5.57;;;7.70;95.60;;;;;;2057487;28;20266;-67
2021/09/19 01:52:51;;;;;;;7.60;5.60;;;7.70;95.60;;;;;;2057444;28;20292;-66
2021/09/19 01:53:52;;;;;;;10.77;4.88;;;7.70;95.60;;;;;;2065180;28;20433;-66
2021/09/19 01:54:53;;;;;;;5.67;4.63;;;7.70;95.70;;;;;;2065045;28;20716;-67
2021/09/19 01:55:54;;;;;;;7.60;5.77;;;7.70;95.70;;;;;;2057623;28;20687;-66
2021/09/19 01:56:55;;;;;;;7.90;5.57;;;7.70;95.80;;;;;;2057628;28;20207;-67
2021/09/19 01:57:56;;;;;;;7.93;5.87;;;7.70;96.00;;;;;;2057711;28;20188;-67
2021/09/19 01:58:57;;;;;;;7.60;5.78;;;7.70;96.10;;;;;;2064996;28;20228;-66
2021/09/19 01:59:58;;;;;;;9.00;6.10;;;7.70;96.20;;;;;;2065039;28;20208;-66
2021/09/19 02:01:01;;;;;;;7.80;5.43;;;7.70;96.10;;;;;;2057468;28;20191;-67
2021/09/19 02:02:02;;;;;;;5.70;5.00;;;7.70;96.20;;;;;;2057606;28;20183;-66
2021/09/19 02:03:02;;;;;;;6.00;4.80;;;7.70;96.30;;;;;;2057464;28;20206;-66
2021/09/19 02:04:03;;;;;;;6.27;4.53;;;7.60;96.30;;;;;;2057705;28;20654;-66
2021/09/19 02:05:07;;;;;;;6.70;5.07;;;7.60;96.40;;;;;;2057490;28;20179;-67
2021/09/19 02:06:10;;;;;;;5.93;4.53;;;7.60;96.30;;;;;;2057510;28;20202;-66
2021/09/19 02:07:11;;;;;;;6.32;5.05;;;7.60;96.20;;;;;;2065005;28;20721;-67
2021/09/19 02:08:12;;;;;;;6.00;4.97;;;7.60;96.10;;;;;;2065118;28;20190;-66
2021/09/19 02:09:13;;;;;;;6.97;4.90;;;7.60;96.60;;;;;;2057470;28;20647;-67
2021/09/19 02:10:15;;;;;;;7.57;5.33;;;7.60;95.90;;;;;;2057595;28;20601;-66
2021/09/19 02:11:18;;;;;;;7.15;4.85;;;7.60;95.90;;;;;;2056663;28;20186;-67
2021/09/19 02:12:19;;;;;;;6.47;4.88;;;7.60;95.90;;;;;;2056982;28;20203;-67
2021/09/19 02:13:19;;;;;;;7.43;4.30;;;7.60;95.80;;;;;;2057497;28;20270;-67
2021/09/19 02:14:20;;;;;;;6.93;4.53;;;7.60;95.80;;;;;;2057680;28;20693;-66
2021/09/19 02:15:21;;;;;;;5.47;4.13;;;7.60;95.80;;;;;;2057605;28;20217;-66
2021/09/19 02:16:22;;;;;;;6.78;5.13;;;7.60;95.80;;;;;;2057543;28;20222;-67
2021/09/19 02:17:23;;;;;;;7.68;4.90;;;7.60;95.80;;;;;;2057592;28;20210;-67
2021/09/19 02:18:24;;;;;;;6.67;5.10;;;7.60;95.80;;;;;;2057647;28;20190;-67
2021/09/19 02:19:24;;;;;;;7.33;5.10;;;7.60;95.80;;;;;;2057344;28;20183;-65
2021/09/19 02:20:26;;;;;;;8.77;4.90;;;7.60;95.80;;;;;;2057573;28;20175;-67
2021/09/19 02:21:26;;;;;;;6.28;4.60;;;7.60;95.70;;;;;;2057154;28;20304;-66
2021/09/19 02:22:27;;;;;;;5.77;4.43;;;7.60;95.60;;;;;;2057320;28;20647;-66
2021/09/19 02:23:28;;;;;;;7.00;4.83;;;7.60;95.50;;;;;;2057359;28;20324;-67
2021/09/19 02:24:28;;;;;;;5.03;3.70;;;7.60;95.60;;;;;;2057399;28;20263;-66
2021/09/19 02:25:29;;;;;;;5.23;4.03;;;7.50;95.70;;;;;;2057387;28;20186;-67
2021/09/19 02:26:30;;;;;;;6.07;4.53;;;7.50;95.70;;;;;;2057453;28;20177;-66
2021/09/19 02:27:31;;;;;;;6.70;4.73;;;7.50;95.70;;;;;;2064945;28;20185;-67
2021/09/19 02:28:33;;;;;;;6.57;4.63;;;7.50;95.60;;;;;;2064530;28;20182;-67
2021/09/19 02:29:33;;;;;;;5.75;4.45;;;7.50;95.60;;;;;;2056746;28;20191;-66
2021/09/19 02:30:34;;;;;;;5.87;3.93;;;7.50;95.70;;;;;;2056684;28;20191;-67
2021/09/19 02:31:35;;;;;;;9.63;5.03;;;7.50;95.70;;;;;;2057161;28;20199;-65
2021/09/19 02:32:36;;;;;;;6.93;4.73;;;7.50;95.70;;;;;;2057291;28;20386;-67
2021/09/19 02:33:37;;;;;;;7.93;4.70;;;7.50;95.70;;;;;;2057385;28;20219;-68
2021/09/19 02:34:38;;;;;;;8.30;5.57;;;7.50;95.70;;;;;;2057300;28;20183;-67
2021/09/19 02:35:39;;;;;;;8.40;5.45;;;7.50;95.70;;;;;;2057204;28;20188;-67
2021/09/19 02:36:40;;;;;;;6.57;4.88;;;7.50;95.90;;;;;;2057329;28;20184;-66
2021/09/19 02:37:43;;;;;;;8.07;5.30;;;7.50;96.00;;;;;;2056878;28;20184;-67
2021/09/19 02:38:43;;;;;;;10.85;6.10;;;7.50;96.00;;;;;;2064710;28;20650;-66
2021/09/19 02:39:44;;;;;;;7.43;5.30;;;7.50;96.00;;;;;;2064595;28;20182;-66
2021/09/19 02:40:45;;;;;;;7.43;5.43;;;7.50;96.00;;;;;;2065343;28;20182;-66
2021/09/19 02:41:45;;;;;;;7.50;5.50;;;7.50;96.10;;;;;;2065025;28;20202;-65
2021/09/19 02:42:49;;;;;;;9.13;6.23;;;7.50;96.00;;;;;;2065289;28;20200;-67
2021/09/19 02:43:50;;;;;;;6.95;4.88;;;7.50;96.00;;;;;;2065310;28;20195;-66
2021/09/19 02:44:51;;;;;;;6.47;5.20;;;7.50;96.00;;;;;;2065374;28;20179;-66
2021/09/19 02:45:52;;;;;;;8.77;5.30;;;7.50;95.90;;;;;;2065283;28;20646;-67
2021/09/19 02:46:52;;;;;;;7.28;5.07;;;7.60;95.90;;;;;;2065235;28;20240;-67
2021/09/19 02:47:53;;;;;;;9.83;6.27;;;7.50;95.90;;;;;;2065319;28;20186;-68
2021/09/19 02:48:54;;;;;;;8.77;5.30;;;7.60;96.00;;;;;;2065265;28;20178;-66
2021/09/19 02:49:55;;;;;;;7.43;4.87;;;7.60;96.00;;;;;;2064733;28;20185;-67
2021/09/19 02:50:55;;;;;;;9.30;5.23;;;7.60;96.00;;;;;;2064677;28;20206;-68
2021/09/19 02:51:56;;;;;;;8.93;5.93;;;7.60;95.90;;;;;;2065130;28;20676;-66
2021/09/19 02:52:57;;;;;;;8.67;5.87;;;7.60;95.90;;;;;;2065175;28;20696;-66
2021/09/19 02:53:57;;;;;;;11.43;6.13;;;7.60;96.50;;;;;;2065317;28;20198;-68
2021/09/19 02:54:58;;;;;;;8.47;5.97;;;7.50;96.00;;;;;;2065185;28;20237;-66
2021/09/19 02:55:59;;;;;;;10.30;5.43;;;7.50;96.00;;;;;;2065139;28;20210;-67
2021/09/19 02:57:00;;;;;;;9.10;6.37;;;7.50;96.00;;;;;;2065136;28;20175;-66
2021/09/19 02:58:00;;;;;;;9.23;6.03;;;7.50;96.10;;;;;;2065332;28;20642;-67
2021/09/19 02:59:01;;;;;;;9.43;6.10;;;7.50;96.20;;;;;;2065185;28;20655;-67
2021/09/19 03:00:08;;;;;;;10.40;6.33;;;7.50;96.20;;;;;;2065277;28;20187;-67
2021/09/19 03:01:08;;;;;;;8.43;6.07;;;7.50;96.30;;;;;;2064927;28;20186;-67
2021/09/19 03:02:09;;;;;;;7.33;5.33;;;7.60;96.30;;;;;;2065210;28;20613;-67
2021/09/19 03:03:10;;;;;;;8.27;5.53;;;7.60;96.10;;;;;;2065119;28;20224;-66
2021/09/19 03:04:11;;;;;;;6.70;4.87;;;7.60;95.90;;;;;;2065339;28;20178;-67
2021/09/19 03:05:12;;;;;;;6.75;5.38;;;7.50;96.00;;;;;;2065363;28;20190;-66
2021/09/19 03:06:13;;;;;;;7.85;5.30;;;7.50;96.00;;;;;;2065154;28;20194;-66
2021/09/19 03:07:14;;;;;;;6.63;4.73;;;7.50;96.00;;;;;;2065292;28;20613;-67
2021/09/19 03:08:14;;;;;;;6.13;5.03;;;7.50;96.00;;;;;;2065150;28;20668;-67
2021/09/19 03:09:15;;;;;;;8.40;5.63;;;7.50;96.00;;;;;;2065118;28;20170;-67
2021/09/19 03:10:16;;;;;;;7.40;4.90;;;7.50;96.00;;;;;;2065196;28;20179;-68
2021/09/19 03:11:17;;;;;;;9.77;5.63;;;7.50;95.90;;;;;;2064963;28;20187;-66
2021/09/19 03:12:17;;;;;;;8.67;5.63;;;7.50;95.90;;;;;;2065105;28;20215;-67
2021/09/19 03:13:18;;;;;;;9.13;6.10;;;7.50;95.80;;;;;;2065036;28;20174;-67
2021/09/19 03:14:19;;;;;;;7.57;5.50;;;7.50;95.80;;;;;;2065206;28;20186;-67
2021/09/19 03:15:20;;;;;;;8.63;5.67;;;7.50;95.80;;;;;;2065133;28;20188;-66
2021/09/19 03:16:21;;;;;;;7.40;5.70;;;7.50;95.90;;;;;;2065079;28;20628;-67
2021/09/19 03:17:22;;;;;;;8.70;5.95;;;7.50;96.00;;;;;;2065239;28;20217;-66
2021/09/19 03:18:23;;;;;;;8.70;6.17;;;7.50;95.90;;;;;;2065175;28;20595;-65
2021/09/19 03:19:23;;;;;;;9.67;5.77;;;7.50;95.80;;;;;;2065130;28;20531;-66
2021/09/19 03:20:24;;;;;;;7.77;5.17;;;7.60;95.70;;;;;;2065080;28;20650;-67
2021/09/19 03:21:25;;;;;;;8.63;5.80;;;7.60;95.70;;;;;;2064807;28;20230;-66
2021/09/19 03:22:25;;;;;;;6.50;5.03;;;7.60;95.70;;;;;;2065005;28;20195;-66
2021/09/19 03:23:26;;;;;;;9.03;5.97;;;7.60;95.70;;;;;;2065067;28;20592;-67
2021/09/19 03:24:27;;;;;;;8.23;5.57;;;7.60;95.60;;;;;;2065123;28;20178;-66
2021/09/19 03:25:28;;;;;;;7.20;4.90;;;7.60;95.40;;;;;;2065021;28;20174;-66
2021/09/19 03:26:28;;;;;;;7.83;4.90;;;7.60;95.30;;;;;;2065142;28;20186;-68
2021/09/19 03:27:30;;;;;;;7.20;4.93;;;7.60;95.40;;;;;;2065112;28;20209;-67
2021/09/19 03:28:33;;;;;;;7.30;5.13;;;7.60;95.50;;;;;;2064401;28;20175;-66
2021/09/19 03:29:34;;;;;;;7.80;5.53;;;7.50;95.50;;;;;;2064322;28;20183;-66
2021/09/19 03:30:35;;;;;;;6.47;5.27;;;7.50;95.50;;;;;;2064978;28;20178;-67
2021/09/19 03:31:35;;;;;;;6.83;5.10;;;7.50;95.60;;;;;;2064761;28;20199;-66
2021/09/19 03:32:36;;;;;;;7.80;6.00;;;7.50;95.70;;;;;;2064921;28;20577;-67
2021/09/19 03:33:37;;;;;;;8.68;6.13;;;7.50;95.90;;;;;;2064970;28;20186;-67
2021/09/19 03:34:38;;;;;;;9.00;5.93;;;7.50;95.90;;;;;;2064782;28;20217;-66
2021/09/19 03:35:38;;;;;;;8.73;6.10;;;7.50;96.00;;;;;;2064988;28;20623;-67
2021/09/19 03:36:39;;;;;;;8.47;5.97;;;7.50;96.10;;;;;;2064948;28;20532;-66
2021/09/19 03:37:40;;;;;;;9.27;6.77;;;7.50;96.10;;;;;;2064972;28;20321;-66
2021/09/19 03:38:41;;;;;;;8.70;6.07;;;7.50;96.00;;;;;;2064952;28;20186;-67
2021/09/19 03:39:42;;;;;;;8.77;6.25;;;7.50;95.90;;;;;;2063851;28;20701;-67
2021/09/19 03:40:43;;;;;;;10.20;6.93;;;7.50;95.80;;;;;;2063999;28;20198;-67
2021/09/19 03:41:44;;;;;;;8.90;5.83;;;7.60;95.90;;;;;;2064115;28;20225;-66
2021/09/19 03:42:44;;;;;;;8.97;6.17;;;7.60;95.90;;;;;;2064210;28;20495;-65
2021/09/19 03:43:46;;;;;;;9.80;5.93;;;7.60;95.80;;;;;;2065032;28;20206;-67
2021/09/19 03:44:49;;;;;;;10.27;5.72;;;7.60;95.60;;;;;;2064906;28;20182;-66
2021/09/19 03:45:49;;;;;;;7.43;5.60;;;7.60;95.50;;;;;;2064788;28;20213;-66
2021/09/19 03:46:50;;;;;;;8.03;5.77;;;7.60;95.50;;;;;;2064838;28;20183;-66
2021/09/19 03:47:51;;;;;;;7.77;5.67;;;7.60;95.40;;;;;;2064916;28;20563;-67
2021/09/19 03:48:52;;;;;;;7.30;5.43;;;7.60;95.50;;;;;;2064856;28;20194;-67
2021/09/19 03:49:53;;;;;;;8.10;6.13;;;7.60;95.50;;;;;;2064308;28;20197;-67
2021/09/19 03:50:53;;;;;;;8.13;5.93;;;7.60;95.30;;;;;;2064170;28;20341;-66
2021/09/19 03:51:54;;;;;;;7.70;5.77;;;7.60;95.30;;;;;;2064831;28;20264;-67
2021/09/19 03:52:55;;;;;;;9.87;5.90;;;7.60;95.30;;;;;;2064859;28;20644;-67
2021/09/19 03:53:56;;;;;;;8.83;5.40;;;7.60;95.40;;;;;;2064895;28;20226;-67
2021/09/19 03:54:56;;;;;;;12.07;5.97;;;7.60;95.40;;;;;;2064192;28;20233;-66
2021/09/19 03:55:57;;;;;;;8.00;6.10;;;7.60;95.40;;;;;;2064181;28;20309;-66
2021/09/19 03:56:58;;;;;;;10.33;6.53;;;7.50;95.50;;;;;;2064974;28;20306;-67
2021/09/19 03:58:00;;;;;;;10.53;7.03;;;7.50;95.50;;;;;;2064927;28;20673;-66
2021/09/19 03:59:00;;;;;;;11.73;6.70;;;7.50;95.60;;;;;;2064897;28;20206;-67
2021/09/19 04:00:03;;;;;;;8.70;6.00;;;7.50;95.60;;;;;;2064851;28;20174;-67
2021/09/19 04:01:04;;;;;;;10.35;6.30;;;7.50;95.60;;;;;;2063796;28;20187;-67
2021/09/19 04:02:05;;;;;;;8.93;6.30;;;7.50;95.70;;;;;;2064295;28;20214;-66
2021/09/19 04:03:05;;;;;;;9.07;5.73;;;7.50;95.70;;;;;;2064826;28;20175;-66
2021/09/19 04:04:06;;;;;;;9.47;6.50;;;7.50;95.70;;;;;;2064984;28;20284;-66
2021/09/19 04:05:09;;;;;;;7.77;5.90;;;7.50;95.80;;;;;;2064950;28;20207;-66
2021/09/19 04:06:10;;;;;;;7.53;5.72;;;7.50;95.80;;;;;;2064675;28;20194;-66
2021/09/19 04:07:11;;;;;;;9.73;6.33;;;7.50;95.60;;;;;;2064837;28;20210;-66
2021/09/19 04:08:11;;;;;;;8.87;5.80;;;7.50;95.70;;;;;;2064689;28;20219;-66
2021/09/19 04:09:12;;;;;;;8.17;6.10;;;7.50;95.70;;;;;;2064734;28;20637;-66
2021/09/19 04:10:13;;;;;;;8.40;6.20;;;7.50;95.70;;;;;;2064804;28;20175;-66
2021/09/19 04:11:14;;;;;;;10.13;6.70;;;7.50;95.90;;;;;;2064619;28;20253;-67
2021/09/19 04:12:14;;;;;;;11.75;7.53;;;7.50;95.90;;;;;;2064596;28;20208;-66
2021/09/19 04:13:15;;;;;;;11.17;7.40;;;7.50;95.90;;;;;;2064649;28;20188;-66
2021/09/19 04:14:16;;;;;;;9.43;6.83;;;7.50;95.90;;;;;;2064677;28;20206;-67
2021/09/19 04:15:16;;;;;;;8.27;6.17;;;7.50;95.90;;;;;;2064004;28;20182;-65
2021/09/19 04:16:17;;;;;;;7.70;5.73;;;7.50;95.80;;;;;;2063989;28;20321;-66
2021/09/19 04:17:18;;;;;;;10.13;6.73;;;7.50;95.90;;;;;;2064726;28;20241;-66
2021/09/19 04:18:18;;;;;;;9.03;5.97;;;7.50;95.90;;;;;;2064815;28;20190;-67
2021/09/19 04:19:19;;;;;;;10.07;6.93;;;7.40;95.80;;;;;;2064716;28;20587;-66
2021/09/19 04:20:20;;;;;;;8.83;6.53;;;7.50;95.80;;;;;;2064699;28;20181;-66
2021/09/19 04:21:21;;;;;;;8.80;6.13;;;7.40;95.80;;;;;;2064579;28;20175;-66
2021/09/19 04:22:23;;;;;;;8.47;6.17;;;7.50;95.70;;;;;;2064606;28;20254;-66
2021/09/19 04:23:24;;;;;;;11.13;7.03;;;7.50;95.70;;;;;;2064138;28;20254;-66
2021/09/19 04:24:25;;;;;;;8.30;6.27;;;7.50;95.60;;;;;;2064172;28;20550;-65
2021/09/19 04:25:26;;;;;;;9.30;6.33;;;7.50;95.60;;;;;;2064878;28;20178;-67
2021/09/19 04:26:26;;;;;;;11.93;7.07;;;7.50;95.60;;;;;;2064785;28;20182;-67
2021/09/19 04:27:27;;;;;;;10.87;6.83;;;7.50;95.60;;;;;;2064757;28;20178;-67
2021/09/19 04:28:28;;;;;;;10.60;6.60;;;7.50;95.70;;;;;;2064768;28;20187;-68
2021/09/19 04:29:28;;;;;;;10.13;6.77;;;7.50;95.70;;;;;;2064776;28;20201;-67
2021/09/19 04:30:29;;;;;;;10.80;6.67;;;7.50;95.80;;;;;;2064753;28;20178;-67
2021/09/19 04:31:30;;;;;;;11.53;7.67;;;7.50;95.90;;;;;;2064378;28;20646;-67
2021/09/19 04:32:31;;;;;;;11.07;7.20;;;7.50;95.90;;;;;;2064503;28;20206;-67
2021/09/19 04:33:32;;;;;;;11.20;7.30;;;7.50;95.90;;;;;;2064768;28;20801;-66
2021/09/19 04:34:32;;;;;;;10.37;7.30;;;7.50;95.60;;;;;;2064722;28;20190;-67
2021/09/19 04:35:33;;;;;;;11.27;7.23;;;7.50;95.70;;;;;;2064656;28;20193;-66
2021/09/19 04:36:34;;;;;;;11.33;7.53;;;7.50;95.60;;;;;;2064666;28;20194;-66
2021/09/19 04:37:35;;;;;;;10.20;6.00;;;7.50;95.70;;;;;;2064830;28;20261;-66
2021/09/19 04:38:35;;;;;;;10.55;7.10;;;7.50;95.80;;;;;;2064582;28;20237;-65
2021/09/19 04:39:36;;;;;;;9.40;6.33;;;7.50;95.80;;;;;;2064729;28;20233;-67
2021/09/19 04:40:37;;;;;;;10.83;7.30;;;7.50;95.70;;;;;;2064569;28;20185;-64
2021/09/19 04:41:37;;;;;;;8.63;6.23;;;7.50;95.60;;;;;;2064457;28;20170;-65
2021/09/19 04:42:38;;;;;;;8.47;6.33;;;7.50;95.60;;;;;;2064539;28;20545;-67
2021/09/19 04:43:39;;;;;;;9.90;6.30;;;7.50;95.70;;;;;;2064681;28;20187;-66
2021/09/19 04:44:41;;;;;;;10.73;7.07;;;7.40;95.70;;;;;;2064594;28;20372;-65
2021/09/19 04:45:42;;;;;;;13.18;6.43;;;7.40;95.70;;;;;;2064720;28;20651;-66
2021/09/19 04:46:43;;;;;;;8.23;6.17;;;7.40;95.70;;;;;;2064765;28;20187;-65
2021/09/19 04:47:44;;;;;;;8.93;6.90;;;7.40;95.80;;;;;;2064778;28;20202;-65
2021/09/19 04:48:44;;;;;;;10.27;6.93;;;7.30;95.80;;;;;;2064657;28;20179;-66
2021/09/19 04:49:45;;;;;;;11.60;7.03;;;7.30;95.90;;;;;;2064662;28;20189;-65
2021/09/19 04:50:46;;;;;;;8.37;6.57;;;7.30;95.80;;;;;;2064786;28;20631;-65
2021/09/19 04:51:47;;;;;;;11.73;6.40;;;7.40;95.80;;;;;;2065550;28;20430;-66
2021/09/19 04:52:47;;;;;;;12.83;6.47;;;7.30;95.70;;;;;;2066176;28;20309;-65
2021/09/19 04:53:48;;;;;;;10.87;6.93;;;7.30;96.10;;;;;;2066268;28;20198;-65
2021/09/19 04:54:49;;;;;;;11.63;7.05;;;7.30;95.60;;;;;;2066254;28;20269;-65
2021/09/19 04:55:50;;;;;;;10.33;6.77;;;7.30;95.60;;;;;;2066144;28;20206;-65
2021/09/19 04:56:50;;;;;;;11.20;7.63;;;7.30;95.60;;;;;;2066214;28;20186;-65
2021/09/19 04:57:51;;;;;;;11.93;7.87;;;7.30;95.80;;;;;;2066191;28;20546;-65
2021/09/19 04:58:52;;;;;;;12.30;8.10;;;7.30;96.10;;;;;;2066189;28;20221;-65
2021/09/19 04:59:53;;;;;;;14.40;8.43;;;7.30;96.30;;;;;;2066153;28;20534;-66
2021/09/19 05:00:53;;;;;;;15.00;9.00;;;7.30;96.40;;;;;;2066145;28;20221;-66
2021/09/19 05:01:54;;;;;;;12.83;7.83;;;7.30;96.40;;;;;;2065955;28;20371;-65
2021/09/19 05:02:55;;;;;;;9.23;6.43;;;7.30;96.20;;;;;;2066128;28;20680;-66
2021/09/19 05:03:55;;;;;;;8.67;6.07;;;7.40;96.00;;;;;;2066137;28;20187;-64
2021/09/19 05:04:56;;;;;;;8.87;6.60;;;7.30;95.90;;;;;;2066129;28;20288;-65
2021/09/19 05:05:57;;;;;;;9.33;6.13;;;7.40;95.80;;;;;;2065980;28;20277;-66
2021/09/19 05:06:58;;;;;;;10.80;6.10;;;7.40;95.80;;;;;;2066151;28;20261;-66
2021/09/19 05:07:58;;;;;;;9.47;6.70;;;7.30;95.80;;;;;;2066308;28;20298;-65
2021/09/19 05:08:59;;;;;;;11.63;7.87;;;7.30;95.80;;;;;;2066119;28;20191;-65
2021/09/19 05:10:00;;;;;;;12.40;7.77;;;7.30;95.80;;;;;;2065494;28;20229;-64
2021/09/19 05:11:01;;;;;;;12.90;8.10;;;7.30;95.90;;;;;;2065277;28;20673;-66
2021/09/19 05:12:02;;;;;;;15.40;9.25;;;7.30;96.00;;;;;;2066015;28;20190;-65
2021/09/19 05:13:03;;;;;;;16.35;9.35;;;7.30;96.10;;;;;;2066033;28;20198;-66
2021/09/19 05:14:04;;;;;;;14.47;9.57;;;7.30;96.10;;;;;;2066266;28;20713;-65
2021/09/19 05:15:06;;;;;;;15.53;9.03;;;7.30;96.10;;;;;;2066211;28;20170;-65
2021/09/19 05:16:06;;;;;;;16.88;10.10;;;7.30;96.10;;;;;;2065798;28;20214;-65
2021/09/19 05:17:07;;;;;;;14.07;8.83;;;7.30;96.20;;;;;;2066155;28;20182;-66
2021/09/19 05:18:08;;;;;;;16.93;10.03;;;7.30;96.30;;;;;;2065961;28;20269;-65
2021/09/19 05:19:08;;;;;;;14.97;9.30;;;7.40;96.30;;;;;;2066094;28;20313;-66
2021/09/19 05:20:10;;;;;;;16.60;9.30;;;7.40;96.30;;;;;;2065974;28;20651;-66
2021/09/19 05:21:10;;;;;;;15.35;9.43;;;7.40;96.20;;;;;;2065068;28;20254;-65
2021/09/19 05:22:11;;;;;;;13.00;9.53;;;7.40;96.20;;;;;;2065268;28;20175;-66